Time;durP1;ratioP1;P1;durP2;ratioP2;P2;SDS_P1;SDS_P2;PMS_P1;PMS_P2;Temp;Humidity;BMP_temperature;BMP_pressure;BME280_temperature;BME280_humidity;BME280_pressure;Samples;Min_cycle;Max_cycle;Signal;HPM_P1;HPM_P2
2022/10/13 11:08:54;;;;;;;17.60;7.30;;;;;;;19.36;42.36;101349.63;105879;1286;600753;-89
2022/10/13 11:14:43;;;;;;;16.30;7.20;;;;;;;19.57;42.13;101342.40;106098;1287;66969;-92
2022/10/13 11:20:35;;;;;;;15.00;6.70;;;;;;;19.72;41.72;101336.11;106419;1287;81830;-93
2022/10/13 11:26:58;;;;;;;;;;;;;;;19.90;41.36;101323.23;106105;1282;502248;-92
2022/10/13 11:33:18;;;;;;;21.00;12.00;;;;;;;20.00;41.11;101314.83;106096;1285;80775;-91
2022/10/13 11:38:46;;;;;;;16.20;8.90;;;;;;;20.02;40.53;101309.40;106085;1283;68991;-93
2022/10/13 11:51:22;;;;;;;9.20;5.90;;;;;;;19.97;39.54;101293.69;106462;1282;71085;-91
2022/10/13 12:03:20;;;;;;;;;;;;;;;19.88;38.82;101278.18;106322;1284;80505;-91
2022/10/13 12:06:35;;;;;;;11.90;6.30;;;;;;;19.83;39.00;101276.27;106444;1285;72011;-91
2022/10/13 12:15:22;;;;;;;13.20;6.00;;;;;;;19.79;38.47;101285.10;106030;1283;72906;-90
2022/10/13 12:18:37;;;;;;;12.00;5.90;;;;;;;19.78;38.31;101278.25;106142;1283;81827;-90
2022/10/13 12:24:29;;;;;;;8.10;4.80;;;;;;;19.76;37.71;101273.61;106331;1283;69182;-92
2022/10/13 12:27:37;;;;;;;14.50;5.10;;;;;;;19.74;37.39;101269.56;106153;1284;68204;-92
2022/10/13 12:33:19;;;;;;;7.20;4.70;;;;;;;19.74;37.00;101270.38;106174;1284;81909;-92
2022/10/13 12:41:52;;;;;;;9.60;4.80;;;;;;;19.73;36.47;101258.61;106367;1284;66966;-91
2022/10/13 12:47:58;;;;;;;10.10;4.50;;;;;;;19.75;36.46;101253.44;106399;1284;81290;-92
2022/10/13 12:51:04;;;;;;;10.10;4.70;;;;;;;19.77;36.47;101245.39;106062;1284;72246;-91
2022/10/13 12:54:07;;;;;;;9.80;4.70;;;;;;;19.78;36.45;101241.89;105953;1284;69090;-92
2022/10/13 13:00:01;;;;;;;11.10;5.20;;;;;;;19.80;36.21;101236.69;106531;1284;72688;-91
2022/10/13 13:05:45;;;;;;;10.90;5.00;;;;;;;19.83;36.14;101235.35;105992;1285;72486;-91
2022/10/13 13:11:35;;;;;;;9.10;5.10;;;;;;;19.85;36.14;101237.33;105849;1285;69797;-91
2022/10/13 13:17:28;;;;;;;;;;;;;;;19.86;36.17;101234.38;106044;1285;81950;-91
2022/10/13 13:23:05;;;;;;;11.30;6.80;;;;;;;19.84;36.39;101228.21;106106;1285;68161;-90
2022/10/13 13:31:59;;;;;;;10.80;7.30;;;;;;;19.84;36.10;101235.22;105957;1284;81967;-90
2022/10/13 13:38:00;;;;;;;13.30;7.00;;;;;;;19.84;36.19;101237.31;106209;1283;68108;-90
2022/10/13 13:44:22;;;;;;;13.30;6.30;;;;;;;19.82;36.34;101224.75;105742;1285;71822;-91
2022/10/13 13:49:59;;;;;;;8.90;4.60;;;;;;;19.82;36.11;101218.41;105978;1283;72523;-91
2022/10/13 13:56:10;;;;;;;;;;;;;;;19.78;35.52;101224.85;105769;1284;69169;-91
2022/10/13 14:02:15;;;;;;;17.40;12.40;;;;;;;19.74;35.46;101222.59;106201;1283;81846;-91
2022/10/13 14:07:51;;;;;;;12.30;6.10;;;;;;;19.71;35.15;101217.33;105806;1284;68963;-91
2022/10/13 14:13:33;;;;;;;14.00;5.70;;;;;;;19.68;34.83;101210.30;105642;1284;72357;31
2022/10/13 14:19:24;;;;;;;17.30;5.50;;;;;;;19.67;34.68;101208.91;105522;1284;72166;-91
2022/10/13 14:27:49;;;;;;;12.60;5.40;;;;;;;19.65;34.67;101206.88;105688;1286;73589;-91
2022/10/13 14:33:41;;;;;;;9.60;5.90;;;;;;;19.67;34.77;101205.16;105605;1287;72303;-90
2022/10/13 14:39:32;;;;;;;13.70;6.30;;;;;;;19.68;35.01;101193.84;106109;1285;68891;-90
2022/10/13 14:45:12;;;;;;;12.40;6.50;;;;;;;19.71;35.04;101202.56;105941;1283;81723;-90
2022/10/13 14:50:52;;;;;;;13.30;6.60;;;;;;;19.72;35.16;101203.77;105887;1283;69202;-90
2022/10/13 14:56:43;;;;;;;8.70;6.20;;;;;;;19.73;35.18;101204.77;106084;1283;72368;-90
2022/10/13 15:02:20;;;;;;;10.50;6.30;;;;;;;19.74;35.15;101207.52;105987;1285;72455;-91
2022/10/13 15:07:57;;;;;;;10.10;6.40;;;;;;;19.74;35.42;101211.50;106475;1283;68106;-91
2022/10/13 15:13:33;;;;;;;9.00;6.30;;;;;;;19.75;35.60;101214.84;105939;1283;81903;-91
2022/10/13 15:19:37;;;;;;;11.80;6.90;;;;;;;19.75;35.64;101219.07;105847;1283;68259;-89
2022/10/13 15:25:28;;;;;;;11.40;7.10;;;;;;;19.75;35.60;101217.94;106010;1284;72996;31
2022/10/13 15:31:43;;;;;;;13.80;7.20;;;;;;;19.76;35.68;101219.53;106063;1283;72210;-91
2022/10/13 15:37:27;;;;;;;10.70;7.20;;;;;;;19.76;35.75;101214.73;105984;1283;69159;-91
2022/10/13 15:43:14;;;;;;;12.20;7.40;;;;;;;19.76;35.71;101220.26;105900;1283;81933;-85
2022/10/13 15:46:20;;;;;;;10.10;7.20;;;;;;;19.75;35.70;101225.10;106285;1283;72307;-90
2022/10/13 15:49:28;;;;;;;11.50;7.90;;;;;;;19.75;35.89;101229.11;105945;1285;69052;-90
2022/10/13 15:55:13;;;;;;;15.50;8.30;;;;;;;19.76;35.72;101234.45;105749;1284;72396;31
2022/10/13 16:01:21;;;;;;;19.00;8.80;;;;;;;19.76;36.05;101231.55;106055;1283;73965;-91
2022/10/13 16:04:24;;;;;;;10.40;7.90;;;;;;;19.75;35.96;101229.34;105971;1283;68426;-90
2022/10/13 16:10:21;;;;;;;14.80;8.60;;;;;;;19.76;35.97;101224.19;106096;1284;73459;-91
2022/10/13 16:16:11;;;;;;;12.50;8.00;;;;;;;19.76;36.01;101222.09;106131;1284;72248;-91
2022/10/13 16:22:18;;;;;;;14.60;8.20;;;;;;;19.77;36.10;101227.10;105852;1285;69071;31
2022/10/13 16:25:34;;;;;;;17.80;9.10;;;;;;;19.76;36.20;101222.21;106174;1283;73481;-91
2022/10/13 16:31:13;;;;;;;15.60;8.80;;;;;;;19.78;36.10;101223.20;105700;1283;72272;-90
2022/10/13 16:36:51;;;;;;;15.80;8.70;;;;;;;19.78;36.17;101218.20;105775;1283;69119;-91
2022/10/13 16:45:31;;;;;;;37.10;21.90;;;;;;;19.79;36.35;101228.59;106018;1285;72199;-90
2022/10/13 16:51:12;;;;;;;32.90;19.30;;;;;;;19.79;36.32;101226.28;105805;1285;66904;-90
2022/10/13 17:00:48;;;;;;;25.60;16.00;;;;;;;19.77;36.48;101220.98;105649;1283;72120;-91
2022/10/13 17:09:34;;;;;;;25.30;15.00;;;;;;;19.76;36.44;101216.13;105752;1284;73175;-91
2022/10/13 17:12:49;;;;;;;20.60;13.60;;;;;;;19.76;36.45;101213.27;105581;1283;80613;-90
2022/10/13 17:18:52;;;;;;;22.00;12.60;;;;;;;19.76;36.52;101220.50;105647;1283;69124;31
2022/10/13 17:30:52;;;;;;;20.30;11.20;;;;;;;19.75;36.48;101215.39;105867;1283;72128;-89
2022/10/13 17:34:00;;;;;;;17.20;11.40;;;;;;;19.74;36.55;101210.39;105890;1285;67626;-90
2022/10/13 17:40:01;;;;;;;17.80;10.00;;;;;;;19.75;36.75;101211.09;105930;1283;72696;-89
2022/10/13 17:45:48;;;;;;;16.00;9.60;;;;;;;19.75;36.69;101215.64;105594;1284;72304;-86
2022/10/13 17:51:43;;;;;;;15.50;9.70;;;;;;;19.75;36.53;101207.94;105813;1284;69114;31
2022/10/13 17:54:54;;;;;;;;;;;;;;;19.75;36.42;101210.91;105888;1283;73256;-88
2022/10/13 18:00:53;;;;;;;18.30;9.70;;;;;;;19.73;36.65;101206.18;107157;1283;71959;-90
2022/10/13 18:04:12;;;;;;;17.20;9.50;;;;;;;19.74;36.56;101208.64;107238;1284;68972;-86
2022/10/13 18:07:20;;;;;;;17.20;10.20;;;;;;;19.74;36.67;101208.33;106564;1283;69072;-91
2022/10/13 18:13:03;;;;;;;21.10;10.90;;;;;;;19.75;36.58;101205.04;105985;1283;81686;-91
2022/10/13 18:18:58;;;;;;;21.00;11.40;;;;;;;19.76;36.54;101230.02;105571;1284;69017;-88
2022/10/13 18:24:40;;;;;;;22.60;11.60;;;;;;;19.77;36.57;101232.31;105599;1286;73125;31
2022/10/13 18:33:35;;;;;;;16.60;10.80;;;;;;;19.75;36.68;101232.40;105341;1284;69070;-85
2022/10/13 18:36:42;;;;;;;23.10;11.60;;;;;;;19.74;36.73;101236.77;105555;1284;69195;-91
2022/10/13 18:39:50;;;;;;;19.00;10.80;;;;;;;19.74;36.72;101241.94;105667;1284;73208;-91
2022/10/13 18:45:47;;;;;;;21.80;11.30;;;;;;;19.74;36.78;101243.16;105602;1284;72026;-89
2022/10/13 18:54:28;;;;;;;15.90;10.40;;;;;;;19.73;36.99;101246.81;105438;1285;73363;31
2022/10/13 19:00:30;;;;;;;17.30;10.70;;;;;;;19.72;36.99;101249.98;105562;1284;72313;31
2022/10/13 19:09:27;;;;;;;18.20;11.10;;;;;;;19.71;37.31;101254.60;105830;1283;73360;31
2022/10/13 19:15:26;;;;;;;22.30;12.20;;;;;;;19.71;37.64;101256.73;105728;1283;72150;-90
2022/10/13 19:21:07;;;;;;;17.20;11.00;;;;;;;19.70;37.63;101254.67;105553;1283;69037;-91
2022/10/13 19:29:33;;;;;;;18.60;11.80;;;;;;;19.69;37.86;101265.23;105774;1283;71241;-91
2022/10/13 19:35:13;;;;;;;;;;;;;;;19.66;38.10;101264.32;105987;1283;69071;-90
2022/10/13 19:40:51;;;;;;;18.30;11.10;;;;;;;19.64;38.06;101264.69;106105;1284;81862;-90
2022/10/13 19:46:29;;;;;;;18.80;11.90;;;;;;;19.65;38.24;101281.23;105944;1284;69118;-92
2022/10/13 19:54:57;;;;;;;21.10;11.90;;;;;;;19.66;38.44;101288.98;105749;1284;82323;-90
2022/10/13 19:58:04;;;;;;;24.70;12.50;;;;;;;19.66;38.43;101285.20;105985;1283;72491;-90
2022/10/13 20:04:02;;;;;;;19.50;11.60;;;;;;;19.66;38.55;101281.83;106009;1284;69026;-90
2022/10/13 20:07:06;;;;;;;20.50;11.60;;;;;;;19.66;38.61;101271.24;105940;1284;73416;-90
2022/10/13 20:15:49;;;;;;;22.30;11.50;;;;;;;19.65;38.78;101273.34;105775;1285;69081;-91
2022/10/13 20:21:25;;;;;;;21.80;11.90;;;;;;;19.66;38.67;101276.36;105784;1285;73132;-91
2022/10/13 20:24:28;;;;;;;17.40;11.10;;;;;;;19.65;39.06;101278.39;105837;1283;81736;-91
2022/10/13 20:30:21;;;;;;;17.60;11.50;;;;;;;19.65;38.99;101277.06;105790;1283;69027;-91
2022/10/13 20:36:03;;;;;;;16.30;11.60;;;;;;;19.65;39.10;101276.27;105645;1283;73421;-92
2022/10/13 20:45:07;;;;;;;21.20;12.30;;;;;;;19.64;39.27;101270.86;105626;1283;69016;31
2022/10/13 20:48:15;;;;;;;18.40;11.50;;;;;;;19.63;39.34;101262.48;105764;1284;69167;-90
2022/10/13 20:51:24;;;;;;;20.10;12.00;;;;;;;19.62;39.47;101256.99;105906;1282;73861;-90
2022/10/13 20:54:32;;;;;;;19.90;11.90;;;;;;;19.63;39.50;101253.02;105660;1285;81858;-92
2022/10/13 21:00:28;;;;;;;17.30;11.90;;;;;;;19.63;39.66;101247.66;105225;1283;69308;-90
2022/10/13 21:06:04;;;;;;;20.40;11.50;;;;;;;19.62;39.61;101245.20;105584;1285;73684;-90
2022/10/13 21:11:40;;;;;;;17.70;12.10;;;;;;;19.61;39.90;101243.55;105477;1285;71857;-90
2022/10/13 21:17:20;;;;;;;18.30;11.70;;;;;;;19.61;39.93;101243.15;105374;1284;69060;-90
2022/10/13 21:23:11;;;;;;;17.80;11.90;;;;;;;19.61;39.91;101241.77;105596;1286;81244;-90
2022/10/13 21:28:48;;;;;;;18.30;12.10;;;;;;;19.60;40.02;101237.77;105527;1284;69186;-91
2022/10/13 21:34:28;;;;;;;21.70;12.30;;;;;;;19.60;40.25;101234.59;105390;1283;73469;-89
2022/10/13 21:37:31;;;;;;;19.60;11.80;;;;;;;19.60;40.12;101234.35;105537;1285;81846;-90
2022/10/13 21:43:23;;;;;;;20.30;11.70;;;;;;;19.60;40.32;101230.66;105715;1285;68968;-90
2022/10/13 21:49:24;;;;;;;17.90;11.50;;;;;;;19.59;40.45;101229.21;105685;1283;73261;-91
2022/10/13 21:55:09;;;;;;;17.90;11.40;;;;;;;19.58;40.52;101232.11;105659;1283;71943;-91
2022/10/13 22:00:46;;;;;;;18.00;11.20;;;;;;;19.58;40.56;101223.58;105672;1284;69189;-91
2022/10/13 22:06:24;;;;;;;16.20;11.10;;;;;;;19.58;40.77;101220.31;105644;1284;81934;-91
2022/10/13 22:12:02;;;;;;;21.80;11.50;;;;;;;19.58;40.84;101221.53;105652;1284;69113;-90
2022/10/13 22:17:44;;;;;;;16.00;11.30;;;;;;;19.57;41.01;101213.77;105538;1283;73635;31
2022/10/13 22:23:54;;;;;;;17.00;11.00;;;;;;;19.57;40.97;101217.59;105560;1284;72176;-91
2022/10/13 22:29:41;;;;;;;21.30;10.70;;;;;;;19.57;41.03;101215.75;105474;1283;68191;31
2022/10/13 22:35:41;;;;;;;17.30;10.20;;;;;;;19.56;41.00;101219.40;105509;1283;82148;31
2022/10/13 22:38:46;;;;;;;14.70;10.20;;;;;;;19.55;41.25;101217.75;105544;1283;72278;-89
2022/10/13 22:44:42;;;;;;;15.00;10.40;;;;;;;19.55;41.26;101215.77;105726;1284;66840;-90
2022/10/13 22:50:46;;;;;;;15.90;10.20;;;;;;;19.54;41.47;101218.77;105468;1284;82024;31
2022/10/13 22:56:45;;;;;;;18.30;10.30;;;;;;;19.54;41.40;101212.49;105639;1283;69004;31
2022/10/13 23:02:35;;;;;;;17.60;10.80;;;;;;;19.54;41.53;101209.01;105809;1283;73473;31
2022/10/13 23:08:20;;;;;;;15.20;9.90;;;;;;;19.53;41.79;101212.62;105143;1289;72011;-91
2022/10/13 23:11:44;;;;;;;16.80;10.30;;;;;;;19.54;41.71;101213.40;105671;1285;66890;31
2022/10/13 23:17:40;;;;;;;14.70;10.10;;;;;;;19.53;41.68;101219.30;105529;1284;72717;-87
2022/10/13 23:23:57;;;;;;;16.20;10.30;;;;;;;19.52;41.80;101219.65;101410;1284;5505108;-90
2022/10/13 23:26:59;;;;;;;19.60;9.60;;;;;;;19.52;41.85;101219.84;106047;1283;68239;-90
2022/10/13 23:32:48;;;;;;;15.30;9.50;;;;;;;19.52;41.94;101215.66;105925;1283;73346;-90
2022/10/13 23:35:51;;;;;;;15.20;9.40;;;;;;;19.52;41.97;101218.31;105916;1283;81657;-91
2022/10/13 23:41:42;;;;;;;16.60;9.80;;;;;;;19.51;42.15;101217.60;105987;1284;69042;-90
2022/10/13 23:44:45;;;;;;;14.70;9.60;;;;;;;19.52;42.08;101218.06;106009;1284;69096;-90
2022/10/13 23:47:49;;;;;;;12.60;9.50;;;;;;;19.52;41.95;101218.05;105800;1283;72606;-91
2022/10/13 23:53:42;;;;;;;14.30;9.90;;;;;;;19.52;42.22;101223.77;105790;1283;72289;-91
2022/10/13 23:59:35;;;;;;;14.50;9.10;;;;;;;19.51;42.22;101222.69;105917;1283;69201;-89
